Time;durP1;ratioP1;P1;durP2;ratioP2;P2;SDS_P1;SDS_P2;PMS_P1;PMS_P2;Temp;Humidity;BMP_temperature;BMP_pressure;BME280_temperature;BME280_humidity;BME280_pressure;Samples;Min_cycle;Max_cycle;Signal;HPM_P1;HPM_P2
2022/12/06 00:02:04;;;;;;;8.83;7.60;;;1.70;99.90;;;;;;5018120;28;20254;-79
2022/12/06 00:04:30;;;;;;;9.77;7.60;;;1.70;99.90;;;;;;5002002;28;20193;-80
2022/12/06 00:06:57;;;;;;;9.30;7.43;;;1.70;99.90;;;;;;4998083;28;20245;-81
2022/12/06 00:09:29;;;;;;;10.07;6.47;;;1.80;99.90;;;;;;5014528;28;20178;-79
2022/12/06 00:11:55;;;;;;;12.50;8.07;;;1.70;99.90;;;;;;5015871;28;20166;-79
2022/12/06 00:14:21;;;;;;;11.75;9.32;;;1.70;99.90;;;;;;5014523;28;20186;-80
2022/12/06 00:16:47;;;;;;;12.20;8.35;;;1.70;99.90;;;;;;5015820;28;20185;-79
2022/12/06 00:19:15;;;;;;;13.95;9.43;;;1.70;99.90;;;;;;5014834;28;20232;-79
2022/12/06 00:21:42;;;;;;;13.60;9.95;;;1.80;99.90;;;;;;5014490;28;20181;-84
2022/12/06 00:24:11;;;;;;;14.30;9.10;;;1.80;99.90;;;;;;5015930;28;20201;-79
2022/12/06 00:26:39;;;;;;;14.38;9.00;;;1.90;99.90;;;;;;5015542;28;20202;-79
2022/12/06 00:29:05;;;;;;;13.95;9.13;;;1.80;99.90;;;;;;5016108;28;20185;-79
2022/12/06 00:31:33;;;;;;;13.88;9.48;;;1.80;99.90;;;;;;5015911;28;20209;-79
2022/12/06 00:33:59;;;;;;;13.27;10.00;;;1.80;99.90;;;;;;4997928;28;20189;-79
2022/12/06 00:36:30;;;;;;;15.33;9.80;;;1.80;99.90;;;;;;5015745;28;20186;-80
2022/12/06 00:38:59;;;;;;;12.43;9.98;;;1.90;99.90;;;;;;5015884;28;20745;-79
2022/12/06 00:41:25;;;;;;;14.20;9.45;;;1.90;99.90;;;;;;5014408;28;20204;-79
2022/12/06 00:43:52;;;;;;;22.97;13.50;;;1.90;99.90;;;;;;5015873;28;20182;-80
2022/12/06 00:46:20;;;;;;;16.48;9.68;;;1.90;99.90;;;;;;5014533;28;20523;-79
2022/12/06 00:48:47;;;;;;;16.48;11.95;;;1.90;99.90;;;;;;5013884;28;20214;-80
2022/12/06 00:51:14;;;;;;;13.70;9.75;;;1.90;99.90;;;;;;4997658;28;20196;-79
2022/12/06 00:53:40;;;;;;;15.70;11.32;;;2.00;99.90;;;;;;5014376;28;20178;-80
2022/12/06 00:56:06;;;;;;;18.20;11.57;;;2.00;99.90;;;;;;5014237;28;20186;-79
2022/12/06 00:58:31;;;;;;;14.00;10.35;;;2.00;99.90;;;;;;5012859;28;20178;-81
2022/12/06 01:01:11;;;;;;;18.43;10.50;;;1.90;99.90;;;;;;4995161;28;20185;-80
2022/12/06 01:03:38;;;;;;;21.65;11.43;;;1.90;99.90;;;;;;5013288;28;20170;-82
2022/12/06 01:06:09;;;;;;;17.42;10.02;;;1.90;99.90;;;;;;5011135;28;20220;-79
2022/12/06 01:08:35;;;;;;;21.10;10.52;;;2.00;99.90;;;;;;5033376;28;20588;-81
2022/12/06 01:11:02;;;;;;;15.23;10.02;;;2.10;99.90;;;;;;5018349;28;20189;-80
2022/12/06 01:13:29;;;;;;;12.82;9.60;;;2.10;99.90;;;;;;5020675;28;20182;-79
2022/12/06 01:15:55;;;;;;;17.10;10.85;;;2.10;99.90;;;;;;5038317;28;20181;-79
2022/12/06 01:18:22;;;;;;;11.75;9.25;;;2.00;99.90;;;;;;5004427;28;20220;-79
2022/12/06 01:20:47;;;;;;;13.88;10.68;;;2.00;99.90;;;;;;5001175;28;20181;-80
2022/12/06 01:23:14;;;;;;;15.43;10.83;;;2.10;99.90;;;;;;5035135;28;20203;-82
2022/12/06 01:25:50;;;;;;;19.92;10.60;;;2.10;99.90;;;;;;5035201;28;20650;-81
2022/12/06 01:28:15;;;;;;;14.90;10.20;;;2.10;99.90;;;;;;5035269;28;20224;-80
2022/12/06 01:30:41;;;;;;;13.10;9.87;;;2.10;99.90;;;;;;5037239;28;20189;-80
2022/12/06 01:33:06;;;;;;;15.73;9.53;;;2.20;99.90;;;;;;5020258;28;20541;-80
2022/12/06 01:35:32;;;;;;;14.00;9.30;;;2.20;99.90;;;;;;5020189;28;20186;-79
2022/12/06 01:37:58;;;;;;;14.07;10.10;;;2.20;99.90;;;;;;5004089;28;20541;-79
2022/12/06 01:40:23;;;;;;;15.20;10.07;;;2.20;99.90;;;;;;5020367;28;20211;-79
2022/12/06 01:42:49;;;;;;;15.63;9.70;;;2.30;99.90;;;;;;5003746;28;20193;-79
2022/12/06 01:45:14;;;;;;;14.10;10.53;;;2.20;99.90;;;;;;5020626;28;20191;-80
2022/12/06 01:47:43;;;;;;;18.40;10.70;;;2.20;99.90;;;;;;5037886;28;20205;-80
2022/12/06 01:50:25;;;;;;;16.67;10.63;;;2.20;99.90;;;;;;5038217;28;20192;-79
2022/12/06 01:52:56;;;;;;;16.05;9.68;;;2.20;99.90;;;;;;5037903;28;20170;-80
2022/12/06 01:55:26;;;;;;;20.88;14.10;;;2.20;99.90;;;;;;5020285;28;20196;-80
2022/12/06 01:57:54;;;;;;;14.27;10.20;;;2.20;99.90;;;;;;5037494;28;20238;-80
2022/12/06 02:00:20;;;;;;;15.20;10.27;;;2.20;99.90;;;;;;5038237;28;20196;-80
2022/12/06 02:02:45;;;;;;;13.50;10.30;;;2.20;99.90;;;;;;5037981;28;20614;-80
2022/12/06 02:05:12;;;;;;;15.93;10.90;;;2.20;99.90;;;;;;4987673;28;20189;-80
2022/12/06 02:07:39;;;;;;;20.30;10.13;;;2.30;99.90;;;;;;5037617;28;20230;-79
2022/12/06 02:10:05;;;;;;;18.85;10.30;;;2.30;99.90;;;;;;5037738;28;20206;-79
2022/12/06 02:12:31;;;;;;;14.30;9.18;;;2.20;99.90;;;;;;5003826;28;20179;-79
2022/12/06 02:14:58;;;;;;;14.10;10.50;;;2.20;99.90;;;;;;5003153;28;20669;-80
2022/12/06 02:17:29;;;;;;;14.77;11.02;;;2.30;99.90;;;;;;5019893;28;20182;-80
2022/12/06 02:20:07;;;;;;;21.00;12.73;;;2.30;99.90;;;;;;5036396;28;20166;-79
2022/12/06 02:22:57;;;;;;;18.25;9.75;;;2.40;99.90;;;;;;5037344;28;20175;-79
2022/12/06 02:25:34;;;;;;;19.17;12.18;;;2.40;99.90;;;;;;5037205;28;20176;-80
2022/12/06 02:28:32;;;;;;;18.45;11.18;;;2.30;99.90;;;;;;5036964;28;20243;-79
2022/12/06 02:31:33;;;;;;;19.05;11.57;;;2.40;99.90;;;;;;5037352;28;20179;-80
2022/12/06 02:34:16;;;;;;;17.75;11.25;;;2.30;99.90;;;;;;4994887;28;20567;-80
2022/12/06 02:36:57;;;;;;;16.60;11.48;;;2.40;99.90;;;;;;5037045;28;20238;-80
2022/12/06 02:39:25;;;;;;;16.13;12.25;;;2.40;99.90;;;;;;5037238;28;20228;-80
2022/12/06 02:42:19;;;;;;;20.98;12.90;;;2.40;99.90;;;;;;5036709;28;20211;-80
2022/12/06 02:45:10;;;;;;;21.73;15.35;;;2.30;99.90;;;;;;5034131;28;20193;-80
2022/12/06 02:47:37;;;;;;;17.45;11.35;;;2.40;99.90;;;;;;5036806;28;20685;-81
2022/12/06 02:50:09;;;;;;;23.02;12.68;;;2.40;99.90;;;;;;5018976;28;20538;-80
2022/12/06 02:52:39;;;;;;;16.08;12.27;;;2.40;99.90;;;;;;5036956;28;20174;-80
2022/12/06 02:55:07;;;;;;;23.83;13.00;;;2.50;99.90;;;;;;5037075;28;20166;-80
2022/12/06 02:57:48;;;;;;;26.75;12.10;;;2.40;99.90;;;;;;5036455;28;20186;-80
2022/12/06 03:00:37;;;;;;;21.52;12.05;;;2.40;99.90;;;;;;5036748;28;20176;-79
2022/12/06 03:03:11;;;;;;;20.30;11.40;;;2.40;99.90;;;;;;5018625;28;20175;-80
2022/12/06 03:05:46;;;;;;;20.25;11.98;;;2.30;99.90;;;;;;5036967;28;20207;-80
2022/12/06 03:08:30;;;;;;;22.73;12.30;;;2.40;99.90;;;;;;5018726;28;20239;-79
2022/12/06 03:11:00;;;;;;;22.50;12.27;;;2.40;99.90;;;;;;5019052;28;20235;-79
2022/12/06 03:13:53;;;;;;;22.08;12.45;;;2.50;99.90;;;;;;5036506;28;20178;-80
2022/12/06 03:16:40;;;;;;;22.42;12.38;;;2.50;99.90;;;;;;5018548;28;20227;-80
2022/12/06 03:19:24;;;;;;;22.45;12.82;;;2.60;99.90;;;;;;5036379;28;20537;-79
2022/12/06 03:22:17;;;;;;;20.92;12.25;;;2.60;99.90;;;;;;5002024;28;20319;-80
2022/12/06 03:24:44;;;;;;;19.35;13.15;;;2.60;99.90;;;;;;5036021;28;20185;-80
2022/12/06 03:27:13;;;;;;;22.90;13.45;;;2.60;99.90;;;;;;5018219;28;20243;-81
2022/12/06 03:29:46;;;;;;;26.58;12.88;;;2.60;99.90;;;;;;5036769;28;20254;-79
2022/12/06 03:32:16;;;;;;;21.90;13.77;;;2.70;99.90;;;;;;5018170;28;20614;-80
2022/12/06 03:34:46;;;;;;;21.10;13.57;;;2.50;99.90;;;;;;5036500;28;20171;-80
2022/12/06 03:37:17;;;;;;;21.70;12.65;;;2.60;99.90;;;;;;5018332;28;20206;-80
2022/12/06 03:39:58;;;;;;;21.42;12.65;;;2.60;99.90;;;;;;5036561;28;20161;-80
2022/12/06 03:42:24;;;;;;;23.25;13.20;;;2.60;99.90;;;;;;5036544;28;20167;-80
2022/12/06 03:44:50;;;;;;;21.10;13.70;;;2.60;99.90;;;;;;5019041;28;20181;-80
2022/12/06 03:47:40;;;;;;;26.00;14.60;;;2.60;99.90;;;;;;5018773;28;20522;-80
2022/12/06 03:50:39;;;;;;;24.83;13.05;;;2.60;99.90;;;;;;5017975;28;20188;-80
2022/12/06 03:53:05;;;;;;;23.17;13.95;;;2.60;99.90;;;;;;5018605;28;20566;-80
2022/12/06 03:55:30;;;;;;;21.95;13.93;;;2.50;99.90;;;;;;5018626;28;20267;-79
2022/12/06 03:57:56;;;;;;;24.27;13.67;;;2.60;99.90;;;;;;5018407;28;20270;-80
2022/12/06 04:00:22;;;;;;;21.97;13.03;;;2.50;99.90;;;;;;5002051;28;20193;-79
2022/12/06 04:02:47;;;;;;;22.70;13.23;;;2.50;99.90;;;;;;5018184;28;20186;-80
2022/12/06 04:05:13;;;;;;;22.67;12.33;;;2.50;99.90;;;;;;5018490;28;20177;-79
2022/12/06 04:07:39;;;;;;;19.93;12.73;;;2.50;99.90;;;;;;5035222;28;20243;-79
2022/12/06 04:10:05;;;;;;;18.93;13.20;;;2.50;99.90;;;;;;5018520;28;20217;-80
2022/12/06 04:15:18;;;;;;;19.75;12.90;;;2.50;99.90;;;;;;5020858;28;20184;-80
2022/12/06 04:23:02;;;;;;;21.85;12.98;;;2.60;99.90;;;;;;5035569;28;20214;-80
2022/12/06 04:23:16;;;;;;;18.95;12.27;;;2.60;99.90;;;;;;5035490;28;20239;-80
2022/12/06 04:25:42;;;;;;;19.75;13.30;;;2.60;99.90;;;;;;5017602;28;20193;-80
2022/12/06 04:39:04;;;;;;;16.77;11.38;;;2.80;99.90;;;;;;5035853;28;20170;-80
2022/12/06 04:44:13;;;;;;;22.70;12.48;;;2.80;99.90;;;;;;5024183;28;20621;-80
2022/12/06 04:46:39;;;;;;;20.60;11.70;;;2.70;99.90;;;;;;5039293;28;20185;-80
2022/12/06 04:49:04;;;;;;;26.33;11.80;;;2.80;99.90;;;;;;5005643;28;20700;-80
2022/12/06 04:51:31;;;;;;;27.00;12.53;;;2.80;99.90;;;;;;5039418;28;20175;-80
2022/12/06 04:53:57;;;;;;;18.67;12.13;;;2.70;99.90;;;;;;5021721;28;20619;-83
2022/12/06 04:56:22;;;;;;;19.50;11.30;;;2.60;99.90;;;;;;5022061;28;20217;-80
2022/12/06 04:58:48;;;;;;;22.43;12.40;;;2.70;99.90;;;;;;5039622;28;20268;-80
2022/12/06 05:01:13;;;;;;;20.60;12.87;;;2.70;99.90;;;;;;5021493;28;20187;-80
2022/12/06 05:03:39;;;;;;;22.00;13.57;;;2.70;99.90;;;;;;5021412;28;20301;-80
2022/12/06 05:06:05;;;;;;;20.40;12.90;;;2.80;99.90;;;;;;5039403;28;20209;-80
2022/12/06 05:08:30;;;;;;;20.47;12.37;;;2.70;99.90;;;;;;5001938;28;20380;-80
2022/12/06 05:10:56;;;;;;;18.80;12.37;;;2.80;99.90;;;;;;5019715;28;20420;-80
2022/12/06 05:13:22;;;;;;;21.03;13.20;;;2.90;99.90;;;;;;5018166;28;20180;-80
2022/12/06 05:15:53;;;;;;;23.35;11.80;;;2.80;99.90;;;;;;5019428;28;20254;-80
2022/12/06 05:18:19;;;;;;;17.00;11.50;;;2.70;99.90;;;;;;5019113;28;20716;-82
2022/12/06 05:20:45;;;;;;;27.93;12.57;;;2.70;99.90;;;;;;5019349;28;20225;-80
2022/12/06 05:23:11;;;;;;;30.73;13.17;;;2.70;99.90;;;;;;5017611;28;20417;-80
2022/12/06 05:25:36;;;;;;;21.35;11.85;;;2.70;99.90;;;;;;5017854;28;20219;-80
2022/12/06 05:28:03;;;;;;;25.87;12.30;;;2.70;99.90;;;;;;5017618;28;20277;-80
2022/12/06 05:30:28;;;;;;;28.40;12.60;;;2.70;99.90;;;;;;5019470;28;20187;-80
2022/12/06 05:32:54;;;;;;;24.17;12.10;;;2.80;99.90;;;;;;5019270;28;20233;-81
2022/12/06 05:35:20;;;;;;;37.27;12.80;;;2.70;99.90;;;;;;5001083;28;20221;-80
2022/12/06 05:37:45;;;;;;;32.53;13.97;;;2.60;99.90;;;;;;5001979;28;20520;-80
2022/12/06 05:40:11;;;;;;;19.87;11.10;;;2.70;99.90;;;;;;5018625;28;20187;-80
2022/12/06 05:42:39;;;;;;;16.47;10.60;;;2.70;99.90;;;;;;5018552;28;20183;-80
2022/12/06 05:45:06;;;;;;;20.60;11.02;;;2.70;99.90;;;;;;5018749;28;20406;-80
2022/12/06 05:47:31;;;;;;;30.23;13.38;;;2.80;99.90;;;;;;5018965;28;20217;-80
2022/12/06 05:49:57;;;;;;;23.20;12.00;;;2.80;99.90;;;;;;5017524;28;20546;-80
2022/12/06 05:52:23;;;;;;;19.33;11.07;;;2.80;99.90;;;;;;5017376;28;20179;-79
2022/12/06 05:54:48;;;;;;;20.90;12.37;;;2.80;99.90;;;;;;5031693;28;20186;-80
2022/12/06 05:57:14;;;;;;;22.00;11.63;;;2.90;99.90;;;;;;5036718;28;20190;-80
2022/12/06 05:59:39;;;;;;;22.40;12.63;;;2.80;99.90;;;;;;5038004;28;20186;-80
2022/12/06 06:02:05;;;;;;;26.33;12.47;;;2.80;99.90;;;;;;5037297;28;20190;-80
2022/12/06 06:04:31;;;;;;;31.60;12.43;;;2.90;99.90;;;;;;5037105;28;20182;-80
2022/12/06 06:06:56;;;;;;;24.30;11.80;;;2.80;99.90;;;;;;5039195;28;20280;-81
2022/12/06 06:09:23;;;;;;;27.80;13.20;;;2.90;99.90;;;;;;5039953;28;20184;-80
2022/12/06 06:11:49;;;;;;;24.88;12.52;;;2.90;99.90;;;;;;5058126;28;20177;-80
2022/12/06 06:14:14;;;;;;;23.60;12.47;;;2.90;99.90;;;;;;5057647;28;20212;-80
2022/12/06 06:16:40;;;;;;;36.10;12.07;;;2.90;99.90;;;;;;5039568;28;20188;-80
2022/12/06 06:19:05;;;;;;;32.10;12.77;;;2.90;99.90;;;;;;5039024;28;20799;-81
2022/12/06 06:21:31;;;;;;;20.90;12.00;;;2.80;99.90;;;;;;5036997;28;20260;-81
2022/12/06 06:23:57;;;;;;;24.23;11.83;;;2.90;99.90;;;;;;5054307;28;20182;-82
2022/12/06 06:26:23;;;;;;;25.08;11.45;;;2.90;99.90;;;;;;5036746;28;20269;-81
2022/12/06 06:28:49;;;;;;;25.53;11.50;;;3.00;99.90;;;;;;5036000;28;20315;-82
2022/12/06 06:31:14;;;;;;;34.60;12.00;;;3.00;99.90;;;;;;5036190;28;20443;-80
2022/12/06 06:33:40;;;;;;;25.57;12.30;;;3.00;99.90;;;;;;5037428;28;20627;-80
2022/12/06 06:36:06;;;;;;;20.40;11.90;;;3.00;99.90;;;;;;5056998;28;20419;-81
2022/12/06 06:38:32;;;;;;;17.73;11.17;;;3.10;99.90;;;;;;5057139;28;20444;-80
2022/12/06 06:41:04;;;;;;;20.50;10.97;;;3.00;99.90;;;;;;5057424;28;20425;-80
2022/12/06 06:43:30;;;;;;;30.00;12.98;;;3.10;99.90;;;;;;5039470;28;20285;-81
2022/12/06 06:45:56;;;;;;;22.37;12.20;;;3.10;99.90;;;;;;5039520;28;20633;-80
2022/12/06 06:48:24;;;;;;;28.20;12.60;;;3.10;99.90;;;;;;5056494;28;20461;-80
2022/12/06 06:50:50;;;;;;;30.80;11.88;;;3.10;99.90;;;;;;5057461;28;20534;-80
2022/12/06 06:53:16;;;;;;;30.00;11.85;;;3.00;99.90;;;;;;5039174;28;20185;-80
2022/12/06 06:55:45;;;;;;;54.90;14.10;;;3.00;99.90;;;;;;5038980;28;20177;-80
2022/12/06 06:58:13;;;;;;;31.50;11.77;;;3.10;99.90;;;;;;5038574;28;20439;-81
2022/12/06 07:00:42;;;;;;;54.40;13.68;;;3.10;99.90;;;;;;5052131;28;20631;-80
2022/12/06 07:03:14;;;;;;;37.30;12.98;;;3.10;99.90;;;;;;5018966;28;20185;-81
2022/12/06 07:05:42;;;;;;;41.80;13.10;;;3.10;99.90;;;;;;5018658;28;20192;-80
2022/12/06 07:08:08;;;;;;;32.08;12.45;;;3.00;99.90;;;;;;5018108;28;20396;-81
2022/12/06 07:10:34;;;;;;;44.83;12.35;;;3.00;99.90;;;;;;5002433;28;20189;-80
2022/12/06 07:12:59;;;;;;;56.70;14.07;;;3.10;99.90;;;;;;5036698;28;20174;-80
2022/12/06 07:15:25;;;;;;;39.53;13.30;;;3.10;99.90;;;;;;5036667;28;20185;-80
2022/12/06 07:17:52;;;;;;;43.07;12.00;;;3.10;99.90;;;;;;5036184;28;20193;-80
2022/12/06 07:20:18;;;;;;;39.60;13.40;;;3.00;99.90;;;;;;5036636;28;20187;-80
2022/12/06 07:22:44;;;;;;;42.80;13.30;;;3.00;99.90;;;;;;5018730;28;20193;-79
2022/12/06 07:25:09;;;;;;;29.02;13.93;;;2.90;99.90;;;;;;5002600;28;20424;-80
2022/12/06 07:27:35;;;;;;;42.03;12.47;;;2.90;99.90;;;;;;5036370;28;20370;-80
2022/12/06 07:30:04;;;;;;;36.07;13.83;;;3.10;99.90;;;;;;5002207;28;20185;-80
2022/12/06 07:32:35;;;;;;;30.98;12.75;;;3.10;99.90;;;;;;5019273;28;20262;-80
2022/12/06 07:35:01;;;;;;;52.92;13.40;;;3.10;99.90;;;;;;5018929;28;20178;-80
2022/12/06 07:37:27;;;;;;;35.57;13.10;;;3.20;99.90;;;;;;5036283;28;20191;-80
2022/12/06 07:39:53;;;;;;;24.77;11.83;;;3.20;99.90;;;;;;5002202;28;20432;-81
2022/12/06 07:45:06;;;;;;;45.33;15.30;;;3.20;99.90;;;;;;5020983;28;20189;-80
2022/12/06 07:47:42;;;;;;;30.73;14.20;;;3.20;99.90;;;;;;5017882;28;20212;-80
2022/12/06 07:50:18;;;;;;;29.10;13.10;;;3.20;99.90;;;;;;5036069;28;20206;-86
2022/12/06 07:52:45;;;;;;;23.85;13.23;;;3.20;99.90;;;;;;5036843;28;20162;-80
2022/12/06 07:55:11;;;;;;;33.47;14.25;;;3.30;99.90;;;;;;5018133;28;20184;-80
2022/12/06 07:57:37;;;;;;;24.30;13.35;;;3.30;99.90;;;;;;5018453;28;20622;-80
2022/12/06 08:00:05;;;;;;;19.73;12.43;;;3.30;99.90;;;;;;5018392;28;20182;-83
2022/12/06 08:02:31;;;;;;;20.95;14.02;;;3.30;99.90;;;;;;5017972;28;20190;-83
2022/12/06 08:04:57;;;;;;;18.90;13.10;;;3.40;99.90;;;;;;5017590;28;20265;-83
2022/12/06 08:07:24;;;;;;;22.83;13.43;;;3.40;99.90;;;;;;5000696;28;20241;-83
2022/12/06 08:09:52;;;;;;;25.30;14.82;;;3.30;99.90;;;;;;5017650;28;20188;-83
2022/12/06 08:12:18;;;;;;;22.50;13.05;;;3.40;99.90;;;;;;5017278;28;20182;-84
2022/12/06 08:14:43;;;;;;;24.15;12.77;;;3.40;99.90;;;;;;5017700;28;20174;-83
2022/12/06 08:17:09;;;;;;;23.60;14.00;;;3.50;99.90;;;;;;5017728;28;20510;-88
2022/12/06 08:19:35;;;;;;;22.20;13.57;;;3.40;99.90;;;;;;5021154;28;20276;-84
2022/12/06 08:22:00;;;;;;;27.47;15.43;;;3.50;99.90;;;;;;5038924;28;20183;-84
2022/12/06 08:24:26;;;;;;;24.20;13.07;;;3.50;99.90;;;;;;5021309;28;20189;-85
2022/12/06 08:26:52;;;;;;;31.30;13.40;;;3.50;99.90;;;;;;5004841;28;20249;-84
2022/12/06 08:29:18;;;;;;;26.77;14.97;;;3.50;99.90;;;;;;5021202;28;20209;-84
2022/12/06 08:31:44;;;;;;;26.50;14.13;;;3.50;99.90;;;;;;5039128;28;20179;-84
2022/12/06 08:34:11;;;;;;;23.02;13.85;;;3.50;99.90;;;;;;5039025;28;20182;-88
2022/12/06 08:36:38;;;;;;;25.35;15.07;;;3.50;99.90;;;;;;5039341;28;20182;-85
2022/12/06 08:39:05;;;;;;;21.95;14.82;;;3.50;99.90;;;;;;5044103;28;20204;-85
2022/12/06 08:44:15;;;;;;;23.83;14.57;;;3.50;99.90;;;;;;5058582;28;20176;-85
2022/12/06 08:46:41;;;;;;;30.38;14.52;;;3.50;99.90;;;;;;5058979;28;20503;-84
2022/12/06 08:49:07;;;;;;;21.90;13.63;;;3.50;99.90;;;;;;5025079;28;20196;-85
2022/12/06 08:51:33;;;;;;;21.97;13.67;;;3.50;99.90;;;;;;5041417;28;20244;-85
2022/12/06 08:53:59;;;;;;;24.30;14.18;;;3.60;99.90;;;;;;5040617;28;20544;-85
2022/12/06 08:56:26;;;;;;;34.00;15.07;;;3.70;99.90;;;;;;5040083;28;20186;-85
2022/12/06 08:58:53;;;;;;;27.15;15.13;;;3.70;99.90;;;;;;5040594;28;20542;-87
2022/12/06 09:01:25;;;;;;;30.73;13.95;;;3.70;99.90;;;;;;5057641;28;20177;-86
2022/12/06 09:03:51;;;;;;;25.52;14.55;;;3.70;99.90;;;;;;5058639;28;20321;-85
2022/12/06 09:06:18;;;;;;;25.05;15.63;;;3.60;99.90;;;;;;5040184;28;20612;-85
2022/12/06 09:08:44;;;;;;;25.38;12.75;;;3.70;99.90;;;;;;5024219;28;20244;-85
2022/12/06 09:11:10;;;;;;;24.33;14.35;;;3.70;99.90;;;;;;5057984;28;20533;-85
2022/12/06 09:13:37;;;;;;;22.53;14.37;;;3.70;99.90;;;;;;5040174;28;20177;-85
2022/12/06 09:16:14;;;;;;;21.23;14.20;;;3.70;99.90;;;;;;5041017;28;20408;-87
2022/12/06 09:18:41;;;;;;;31.75;16.73;;;3.70;99.90;;;;;;5058229;28;20165;-87
2022/12/06 09:21:12;;;;;;;27.33;15.50;;;3.80;99.90;;;;;;5040284;28;20268;-86
2022/12/06 09:23:38;;;;;;;28.63;15.70;;;3.80;99.90;;;;;;5040040;28;20184;-86
2022/12/06 09:26:05;;;;;;;22.48;12.93;;;3.80;99.90;;;;;;5058214;28;20195;-86
2022/12/06 09:28:34;;;;;;;25.95;13.98;;;3.80;99.90;;;;;;5056858;28;20274;-85
2022/12/06 09:31:01;;;;;;;25.75;13.23;;;3.80;99.90;;;;;;5040295;28;20188;-86
2022/12/06 09:33:26;;;;;;;20.65;12.82;;;3.80;99.90;;;;;;5039289;28;20697;-87
2022/12/06 09:35:52;;;;;;;23.00;14.17;;;3.80;99.90;;;;;;5040357;28;20228;-86
2022/12/06 09:38:24;;;;;;;27.77;14.93;;;3.80;99.90;;;;;;5039373;28;20586;-87
2022/12/06 09:41:08;;;;;;;26.33;13.63;;;3.90;99.90;;;;;;5057429;28;20166;-86
2022/12/06 09:44:02;;;;;;;25.85;14.60;;;3.90;99.90;;;;;;5058389;28;20986;-86
2022/12/06 09:46:43;;;;;;;27.77;15.70;;;3.90;99.90;;;;;;5039293;28;20196;-86
2022/12/06 09:49:56;;;;;;;21.02;13.73;;;3.90;99.90;;;;;;5039396;28;20185;-87
2022/12/06 09:52:39;;;;;;;26.02;15.25;;;3.90;99.90;;;;;;5007269;28;20602;-85
2022/12/06 09:55:38;;;;;;;23.15;12.75;;;3.90;99.90;;;;;;5039100;28;20177;-86
2022/12/06 09:58:26;;;;;;;20.55;13.70;;;4.00;99.90;;;;;;5023681;28;20248;-86
2022/12/06 10:01:12;;;;;;;20.75;13.35;;;4.10;99.90;;;;;;5057340;28;20239;-86
2022/12/06 10:04:09;;;;;;;22.55;14.35;;;4.10;99.90;;;;;;5056505;28;20169;-86
2022/12/06 10:07:12;;;;;;;24.90;13.55;;;4.10;99.90;;;;;;5044358;28;20178;-85
2022/12/06 10:10:10;;;;;;;24.17;15.48;;;4.10;99.90;;;;;;5051248;28;20201;-85
2022/12/06 10:12:42;;;;;;;21.88;13.48;;;4.10;99.90;;;;;;5056475;28;20173;-85
2022/12/06 10:15:23;;;;;;;22.52;13.70;;;4.20;99.90;;;;;;5056612;28;20158;-85
2022/12/06 10:18:25;;;;;;;22.02;14.05;;;4.20;99.90;;;;;;5056713;28;20618;-85
2022/12/06 10:20:52;;;;;;;28.42;15.95;;;4.20;99.90;;;;;;5056472;28;20212;-86
2022/12/06 10:23:24;;;;;;;18.05;12.48;;;4.20;99.90;;;;;;5056730;28;20177;-86
2022/12/06 10:26:06;;;;;;;33.05;14.70;;;4.20;99.90;;;;;;5038292;28;20188;-85
2022/12/06 10:28:42;;;;;;;20.95;12.90;;;4.20;99.90;;;;;;5056769;28;20572;-85
2022/12/06 10:31:15;;;;;;;22.25;13.55;;;4.30;99.90;;;;;;5040744;28;20537;-85
2022/12/06 10:33:51;;;;;;;21.42;13.05;;;4.30;99.90;;;;;;5056092;28;20245;-86
2022/12/06 10:36:39;;;;;;;20.48;13.32;;;4.20;99.90;;;;;;5038234;28;20226;-85
2022/12/06 10:39:25;;;;;;;19.48;12.50;;;4.30;99.90;;;;;;5038333;28;20185;-85
2022/12/06 10:41:55;;;;;;;23.90;14.20;;;4.40;99.90;;;;;;5054893;28;20170;-85
2022/12/06 10:44:25;;;;;;;21.38;13.68;;;4.40;99.90;;;;;;5038044;28;20277;-85
2022/12/06 10:47:03;;;;;;;26.23;13.93;;;4.30;99.90;;;;;;5055777;28;20173;-85
2022/12/06 10:49:40;;;;;;;22.80;12.63;;;4.30;99.90;;;;;;5037916;28;20221;-85
2022/12/06 10:52:40;;;;;;;21.15;12.07;;;4.40;99.90;;;;;;5055783;28;20599;-84
2022/12/06 10:55:09;;;;;;;19.33;13.00;;;4.50;99.90;;;;;;5050618;28;20582;-84
2022/12/06 10:57:50;;;;;;;17.38;12.32;;;4.60;99.90;;;;;;5040937;28;20182;-84
2022/12/06 11:00:16;;;;;;;19.77;12.23;;;4.60;99.90;;;;;;5049279;28;20188;-84
2022/12/06 11:02:54;;;;;;;16.65;11.27;;;4.60;99.90;;;;;;5017292;28;20177;-84
2022/12/06 11:05:33;;;;;;;15.15;11.02;;;4.60;99.90;;;;;;5017298;28;20257;-85
2022/12/06 11:08:05;;;;;;;14.75;11.02;;;4.60;99.90;;;;;;5035299;28;20618;-84
2022/12/06 11:10:33;;;;;;;15.50;12.20;;;4.70;99.90;;;;;;5035105;28;20164;-85
2022/12/06 11:13:39;;;;;;;17.83;10.57;;;4.60;99.90;;;;;;5017626;28;20182;-84
2022/12/06 11:16:45;;;;;;;15.18;10.80;;;4.60;99.90;;;;;;5016113;28;20613;-84
2022/12/06 11:19:42;;;;;;;21.10;11.43;;;4.70;99.90;;;;;;5031153;28;20194;-83
2022/12/06 11:22:52;;;;;;;18.48;10.63;;;4.70;99.90;;;;;;5034114;28;20198;-85
2022/12/06 11:25:17;;;;;;;18.08;11.18;;;4.80;99.90;;;;;;5034167;28;20226;-85
2022/12/06 11:28:09;;;;;;;15.87;11.47;;;4.80;99.90;;;;;;5034789;28;20710;-86
2022/12/06 11:30:34;;;;;;;12.75;9.57;;;4.90;99.90;;;;;;5005399;28;20265;-85
2022/12/06 11:33:02;;;;;;;12.77;9.50;;;4.90;99.90;;;;;;5017297;28;20307;-85
2022/12/06 11:35:28;;;;;;;11.07;8.85;;;4.90;99.90;;;;;;5034737;28;20185;-85
2022/12/06 11:38:06;;;;;;;12.27;7.80;;;4.90;99.90;;;;;;5035080;28;20542;-85
2022/12/06 11:40:35;;;;;;;15.73;8.85;;;4.80;99.90;;;;;;5040756;28;20638;-85
2022/12/06 11:43:05;;;;;;;10.98;7.65;;;4.70;99.90;;;;;;5054884;28;20180;-85
2022/12/06 11:45:38;;;;;;;12.98;8.13;;;4.80;99.90;;;;;;5036769;28;20227;-84
2022/12/06 11:48:38;;;;;;;11.60;8.32;;;4.80;99.90;;;;;;5054616;28;20660;-84
2022/12/06 11:51:10;;;;;;;16.48;8.93;;;4.80;99.90;;;;;;5036784;28;20241;-84
2022/12/06 11:53:43;;;;;;;11.48;8.82;;;4.90;99.90;;;;;;5054790;28;20301;-85
2022/12/06 11:56:25;;;;;;;11.48;9.18;;;4.90;99.90;;;;;;5055043;28;20177;-85
2022/12/06 11:59:20;;;;;;;14.30;9.48;;;4.90;99.90;;;;;;5037063;28;20181;-85
2022/12/06 12:01:49;;;;;;;13.55;8.75;;;4.90;99.90;;;;;;5054404;28;20176;-85
2022/12/06 12:04:42;;;;;;;15.65;9.55;;;4.90;99.90;;;;;;5037065;28;20185;-85
2022/12/06 12:07:08;;;;;;;11.98;9.25;;;4.90;99.90;;;;;;5020724;28;20257;-85
2022/12/06 12:09:45;;;;;;;12.20;8.50;;;4.90;99.90;;;;;;5036569;28;20188;-85
2022/12/06 12:12:23;;;;;;;19.17;8.40;;;5.00;99.90;;;;;;5054324;28;20161;-85
2022/12/06 12:14:57;;;;;;;16.98;8.80;;;4.90;99.90;;;;;;5054458;28;20204;-85
2022/12/06 12:17:30;;;;;;;13.68;8.30;;;5.00;99.90;;;;;;5036814;28;20187;-86
2022/12/06 12:20:05;;;;;;;11.68;8.80;;;5.10;99.90;;;;;;5054393;28;20196;-85
2022/12/06 12:22:39;;;;;;;12.40;8.05;;;5.10;99.90;;;;;;5036908;28;20252;-85
2022/12/06 12:25:24;;;;;;;17.08;10.05;;;5.20;99.90;;;;;;5054595;28;20170;-85
2022/12/06 12:27:55;;;;;;;11.30;7.15;;;5.20;99.90;;;;;;5054643;28;20225;-85
2022/12/06 12:30:31;;;;;;;12.18;7.20;;;5.20;99.90;;;;;;5054230;28;20199;-85
2022/12/06 12:33:05;;;;;;;10.38;8.10;;;5.10;99.90;;;;;;5054407;28;20232;-85
2022/12/06 12:35:50;;;;;;;12.13;7.75;;;5.10;99.90;;;;;;5054255;28;20173;-85
2022/12/06 12:38:16;;;;;;;11.57;8.65;;;5.10;99.90;;;;;;5049187;28;20173;-87
2022/12/06 12:40:57;;;;;;;10.80;8.20;;;5.10;99.90;;;;;;5034364;28;20738;-85
2022/12/06 12:43:27;;;;;;;12.73;7.18;;;5.10;99.90;;;;;;5033965;28;20184;-85
2022/12/06 12:46:08;;;;;;;19.05;7.40;;;5.20;99.90;;;;;;5034251;28;20169;-85
2022/12/06 12:48:34;;;;;;;13.70;7.03;;;5.20;99.90;;;;;;5033712;28;20297;-85
2022/12/06 12:51:03;;;;;;;8.77;6.15;;;5.20;99.90;;;;;;5016326;28;20183;-85
2022/12/06 12:53:40;;;;;;;9.38;7.00;;;5.30;99.90;;;;;;5016204;28;20187;-85
2022/12/06 12:56:15;;;;;;;12.88;6.75;;;5.30;99.90;;;;;;5034318;28;20160;-85
2022/12/06 12:58:41;;;;;;;10.48;7.70;;;5.40;99.90;;;;;;5016184;28;20185;-85
2022/12/06 13:01:36;;;;;;;9.55;7.60;;;5.30;99.90;;;;;;5033821;28;20184;-85
2022/12/06 13:04:04;;;;;;;8.80;6.35;;;5.30;99.90;;;;;;5035623;28;20161;-85
2022/12/06 13:06:58;;;;;;;9.70;6.70;;;5.30;99.90;;;;;;5019780;28;20296;-85
2022/12/06 13:09:55;;;;;;;10.45;5.90;;;5.40;99.90;;;;;;5019979;28;20196;-85
2022/12/06 13:12:54;;;;;;;8.80;6.10;;;5.40;99.90;;;;;;5019096;28;20638;-85
2022/12/06 13:15:46;;;;;;;12.82;8.55;;;5.30;99.90;;;;;;5028535;28;20182;-84
2022/12/06 13:18:22;;;;;;;9.30;7.18;;;5.30;99.90;;;;;;5025989;28;20214;-85
2022/12/06 13:20:50;;;;;;;11.00;7.88;;;5.30;99.90;;;;;;5031242;28;20260;-85
2022/12/06 13:23:20;;;;;;;12.77;8.70;;;5.30;99.90;;;;;;5013429;28;20629;-85
2022/12/06 13:26:04;;;;;;;13.90;6.82;;;5.30;99.90;;;;;;5021965;28;20183;-85
2022/12/06 13:28:35;;;;;;;11.88;7.30;;;5.30;99.90;;;;;;5047401;28;20213;-86
2022/12/06 13:31:12;;;;;;;9.40;7.03;;;5.30;99.90;;;;;;5029171;28;20226;-84